sensor_id;sensor_type;location;lat;lon;timestamp;P1;durP1;ratioP1;P2;durP2;ratioP2
6671;SDS011;3372;48.690;12.362;2022-09-12T00:01:23;10.57;;;8.33;;
6671;SDS011;3372;48.690;12.362;2022-09-12T00:03:50;11.13;;;8.87;;
6671;SDS011;3372;48.690;12.362;2022-09-12T00:06:22;14.70;;;9.27;;
6671;SDS011;3372;48.690;12.362;2022-09-12T00:08:52;14.83;;;8.77;;
6671;SDS011;3372;48.690;12.362;2022-09-12T00:11:19;11.50;;;8.30;;
6671;SDS011;3372;48.690;12.362;2022-09-12T00:13:45;12.70;;;10.10;;
6671;SDS011;3372;48.690;12.362;2022-09-12T00:16:15;10.00;;;8.17;;
6671;SDS011;3372;48.690;12.362;2022-09-12T00:18:43;13.47;;;9.60;;
6671;SDS011;3372;48.690;12.362;2022-09-12T00:21:10;12.20;;;9.13;;
6671;SDS011;3372;48.690;12.362;2022-09-12T00:23:36;12.20;;;8.53;;
6671;SDS011;3372;48.690;12.362;2022-09-12T00:26:03;12.10;;;8.97;;
6671;SDS011;3372;48.690;12.362;2022-09-12T00:28:30;10.23;;;8.37;;
6671;SDS011;3372;48.690;12.362;2022-09-12T00:30:58;11.60;;;9.10;;
6671;SDS011;3372;48.690;12.362;2022-09-12T00:33:23;12.53;;;8.90;;
6671;SDS011;3372;48.690;12.362;2022-09-12T00:35:50;12.60;;;9.80;;
6671;SDS011;3372;48.690;12.362;2022-09-12T00:38:17;13.70;;;9.70;;
6671;SDS011;3372;48.690;12.362;2022-09-12T00:40:43;12.70;;;9.47;;
6671;SDS011;3372;48.690;12.362;2022-09-12T00:43:14;14.40;;;9.77;;
6671;SDS011;3372;48.690;12.362;2022-09-12T00:45:57;13.47;;;9.70;;
6671;SDS011;3372;48.690;12.362;2022-09-12T00:48:29;13.70;;;10.17;;
6671;SDS011;3372;48.690;12.362;2022-09-12T00:50:59;16.23;;;8.50;;
6671;SDS011;3372;48.690;12.362;2022-09-12T00:53:25;12.00;;;9.73;;
6671;SDS011;3372;48.690;12.362;2022-09-12T00:55:51;11.87;;;8.73;;
6671;SDS011;3372;48.690;12.362;2022-09-12T00:58:29;13.67;;;10.60;;
6671;SDS011;3372;48.690;12.362;2022-09-12T01:01:00;14.53;;;10.00;;
6671;SDS011;3372;48.690;12.362;2022-09-12T01:03:27;11.70;;;9.90;;
6671;SDS011;3372;48.690;12.362;2022-09-12T01:06:04;13.03;;;9.50;;
6671;SDS011;3372;48.690;12.362;2022-09-12T01:08:35;13.70;;;10.43;;
6671;SDS011;3372;48.690;12.362;2022-09-12T01:11:03;11.50;;;9.30;;
6671;SDS011;3372;48.690;12.362;2022-09-12T01:13:30;12.80;;;9.40;;
6671;SDS011;3372;48.690;12.362;2022-09-12T01:15:59;11.60;;;9.60;;
6671;SDS011;3372;48.690;12.362;2022-09-12T01:21:29;13.77;;;9.70;;
6671;SDS011;3372;48.690;12.362;2022-09-12T01:40:41;14.90;;;10.67;;
6671;SDS011;3372;48.690;12.362;2022-09-12T01:43:22;12.50;;;9.63;;
6671;SDS011;3372;48.690;12.362;2022-09-12T01:49:30;13.63;;;9.87;;
6671;SDS011;3372;48.690;12.362;2022-09-12T01:51:43;11.47;;;9.20;;
6671;SDS011;3372;48.690;12.362;2022-09-12T01:54:30;16.20;;;11.37;;
6671;SDS011;3372;48.690;12.362;2022-09-12T01:57:05;13.10;;;8.83;;
6671;SDS011;3372;48.690;12.362;2022-09-12T01:59:40;12.73;;;8.97;;
6671;SDS011;3372;48.690;12.362;2022-09-12T02:02:12;14.73;;;9.87;;
6671;SDS011;3372;48.690;12.362;2022-09-12T02:04:53;13.90;;;9.63;;
6671;SDS011;3372;48.690;12.362;2022-09-12T02:07:28;14.40;;;10.10;;
6671;SDS011;3372;48.690;12.362;2022-09-12T02:10:10;15.17;;;10.93;;
6671;SDS011;3372;48.690;12.362;2022-09-12T02:13:03;14.43;;;9.90;;
6671;SDS011;3372;48.690;12.362;2022-09-12T02:15:32;27.17;;;10.47;;
6671;SDS011;3372;48.690;12.362;2022-09-12T02:18:03;14.90;;;10.50;;
6671;SDS011;3372;48.690;12.362;2022-09-12T02:20:31;16.23;;;10.60;;
6671;SDS011;3372;48.690;12.362;2022-09-12T02:23:00;14.57;;;10.13;;
6671;SDS011;3372;48.690;12.362;2022-09-12T02:25:29;15.60;;;11.00;;
6671;SDS011;3372;48.690;12.362;2022-09-12T02:28:03;15.30;;;10.80;;
6671;SDS011;3372;48.690;12.362;2022-09-12T02:30:38;16.73;;;10.10;;
6671;SDS011;3372;48.690;12.362;2022-09-12T02:33:24;14.90;;;10.03;;
6671;SDS011;3372;48.690;12.362;2022-09-12T02:38:47;14.03;;;10.77;;
6671;SDS011;3372;48.690;12.362;2022-09-12T02:41:14;15.37;;;10.27;;
6671;SDS011;3372;48.690;12.362;2022-09-12T02:43:43;14.77;;;10.27;;
6671;SDS011;3372;48.690;12.362;2022-09-12T02:46:12;16.00;;;10.53;;
6671;SDS011;3372;48.690;12.362;2022-09-12T02:49:00;14.10;;;10.30;;
6671;SDS011;3372;48.690;12.362;2022-09-12T02:51:26;16.60;;;11.70;;
6671;SDS011;3372;48.690;12.362;2022-09-12T02:53:52;16.00;;;10.20;;
6671;SDS011;3372;48.690;12.362;2022-09-12T02:56:22;16.50;;;10.40;;
6671;SDS011;3372;48.690;12.362;2022-09-12T02:58:52;13.13;;;9.60;;
6671;SDS011;3372;48.690;12.362;2022-09-12T03:01:23;17.90;;;11.20;;
6671;SDS011;3372;48.690;12.362;2022-09-12T03:04:18;16.33;;;11.20;;
6671;SDS011;3372;48.690;12.362;2022-09-12T03:07:13;13.70;;;9.40;;
6671;SDS011;3372;48.690;12.362;2022-09-12T03:13:03;16.63;;;11.30;;
6671;SDS011;3372;48.690;12.362;2022-09-12T03:16:03;31.33;;;22.07;;
6671;SDS011;3372;48.690;12.362;2022-09-12T03:19:05;23.27;;;13.53;;
6671;SDS011;3372;48.690;12.362;2022-09-12T03:27:42;19.20;;;11.63;;
6671;SDS011;3372;48.690;12.362;2022-09-12T03:30:15;18.27;;;12.13;;
6671;SDS011;3372;48.690;12.362;2022-09-12T03:32:42;17.83;;;12.07;;
6671;SDS011;3372;48.690;12.362;2022-09-12T03:35:10;16.07;;;10.73;;
6671;SDS011;3372;48.690;12.362;2022-09-12T03:37:37;14.80;;;10.67;;
6671;SDS011;3372;48.690;12.362;2022-09-12T03:40:04;15.80;;;11.87;;
6671;SDS011;3372;48.690;12.362;2022-09-12T03:42:31;15.70;;;11.87;;
6671;SDS011;3372;48.690;12.362;2022-09-12T03:44:56;16.63;;;11.70;;
6671;SDS011;3372;48.690;12.362;2022-09-12T03:47:22;17.83;;;12.00;;
6671;SDS011;3372;48.690;12.362;2022-09-12T03:49:48;14.93;;;10.87;;
6671;SDS011;3372;48.690;12.362;2022-09-12T03:52:13;15.93;;;10.97;;
6671;SDS011;3372;48.690;12.362;2022-09-12T03:54:39;16.50;;;11.60;;
6671;SDS011;3372;48.690;12.362;2022-09-12T03:57:05;20.33;;;11.40;;
6671;SDS011;3372;48.690;12.362;2022-09-12T03:59:31;15.97;;;12.37;;
6671;SDS011;3372;48.690;12.362;2022-09-12T04:01:56;17.53;;;11.83;;
6671;SDS011;3372;48.690;12.362;2022-09-12T04:04:22;15.23;;;11.20;;
6671;SDS011;3372;48.690;12.362;2022-09-12T04:06:47;16.13;;;10.50;;
6671;SDS011;3372;48.690;12.362;2022-09-12T04:09:13;16.50;;;11.10;;
6671;SDS011;3372;48.690;12.362;2022-09-12T04:11:39;16.30;;;11.20;;
6671;SDS011;3372;48.690;12.362;2022-09-12T04:14:05;17.67;;;11.10;;
6671;SDS011;3372;48.690;12.362;2022-09-12T04:16:32;12.93;;;9.90;;
6671;SDS011;3372;48.690;12.362;2022-09-12T04:18:57;18.13;;;10.70;;
6671;SDS011;3372;48.690;12.362;2022-09-12T04:21:25;15.10;;;10.80;;
6671;SDS011;3372;48.690;12.362;2022-09-12T04:23:50;15.87;;;11.07;;
6671;SDS011;3372;48.690;12.362;2022-09-12T04:26:17;16.87;;;10.93;;
6671;SDS011;3372;48.690;12.362;2022-09-12T04:28:45;16.23;;;10.03;;
6671;SDS011;3372;48.690;12.362;2022-09-12T04:31:12;17.60;;;10.50;;
6671;SDS011;3372;48.690;12.362;2022-09-12T04:33:41;15.80;;;10.47;;
6671;SDS011;3372;48.690;12.362;2022-09-12T04:36:15;13.10;;;10.07;;
6671;SDS011;3372;48.690;12.362;2022-09-12T04:38:42;14.93;;;10.80;;
6671;SDS011;3372;48.690;12.362;2022-09-12T04:41:12;17.30;;;12.07;;
6671;SDS011;3372;48.690;12.362;2022-09-12T04:43:40;16.77;;;12.00;;
6671;SDS011;3372;48.690;12.362;2022-09-12T04:46:07;13.20;;;10.50;;
6671;SDS011;3372;48.690;12.362;2022-09-12T04:48:34;16.80;;;10.80;;
6671;SDS011;3372;48.690;12.362;2022-09-12T04:51:11;17.07;;;11.40;;
6671;SDS011;3372;48.690;12.362;2022-09-12T04:53:51;20.00;;;13.00;;
6671;SDS011;3372;48.690;12.362;2022-09-12T04:56:20;34.07;;;19.57;;
6671;SDS011;3372;48.690;12.362;2022-09-12T04:58:46;86.40;;;47.27;;
6671;SDS011;3372;48.690;12.362;2022-09-12T05:01:13;61.63;;;38.27;;
6671;SDS011;3372;48.690;12.362;2022-09-12T05:03:41;75.40;;;40.37;;
6671;SDS011;3372;48.690;12.362;2022-09-12T05:06:09;65.03;;;36.10;;
6671;SDS011;3372;48.690;12.362;2022-09-12T05:08:37;52.10;;;29.80;;
6671;SDS011;3372;48.690;12.362;2022-09-12T05:11:03;38.47;;;24.20;;
6671;SDS011;3372;48.690;12.362;2022-09-12T05:13:31;35.57;;;23.30;;
6671;SDS011;3372;48.690;12.362;2022-09-12T05:15:58;23.80;;;16.30;;
6671;SDS011;3372;48.690;12.362;2022-09-12T05:18:25;30.87;;;20.57;;
6671;SDS011;3372;48.690;12.362;2022-09-12T05:20:51;41.40;;;25.40;;
6671;SDS011;3372;48.690;12.362;2022-09-12T05:23:18;35.87;;;22.10;;
6671;SDS011;3372;48.690;12.362;2022-09-12T05:25:51;31.90;;;20.13;;
6671;SDS011;3372;48.690;12.362;2022-09-12T05:28:17;34.10;;;22.13;;
6671;SDS011;3372;48.690;12.362;2022-09-12T05:30:44;27.10;;;18.70;;
6671;SDS011;3372;48.690;12.362;2022-09-12T05:33:10;25.53;;;17.30;;
6671;SDS011;3372;48.690;12.362;2022-09-12T05:35:36;22.10;;;15.17;;
6671;SDS011;3372;48.690;12.362;2022-09-12T05:38:06;28.10;;;15.20;;
6671;SDS011;3372;48.690;12.362;2022-09-12T05:40:32;20.73;;;14.20;;
6671;SDS011;3372;48.690;12.362;2022-09-12T05:42:58;22.17;;;14.40;;
6671;SDS011;3372;48.690;12.362;2022-09-12T05:45:25;24.60;;;15.43;;
6671;SDS011;3372;48.690;12.362;2022-09-12T05:47:51;22.47;;;15.63;;
6671;SDS011;3372;48.690;12.362;2022-09-12T05:50:18;27.93;;;18.43;;
6671;SDS011;3372;48.690;12.362;2022-09-12T05:52:44;30.70;;;23.80;;
6671;SDS011;3372;48.690;12.362;2022-09-12T05:55:10;34.00;;;24.53;;
6671;SDS011;3372;48.690;12.362;2022-09-12T05:57:39;32.13;;;20.57;;
6671;SDS011;3372;48.690;12.362;2022-09-12T06:00:10;26.53;;;18.90;;
6671;SDS011;3372;48.690;12.362;2022-09-12T06:02:36;25.00;;;17.57;;
6671;SDS011;3372;48.690;12.362;2022-09-12T06:05:02;20.80;;;14.97;;
6671;SDS011;3372;48.690;12.362;2022-09-12T06:07:28;19.33;;;16.53;;
6671;SDS011;3372;48.690;12.362;2022-09-12T06:09:53;19.60;;;14.80;;
6671;SDS011;3372;48.690;12.362;2022-09-12T06:12:19;23.17;;;15.80;;
6671;SDS011;3372;48.690;12.362;2022-09-12T06:14:45;20.60;;;15.67;;
6671;SDS011;3372;48.690;12.362;2022-09-12T06:17:10;25.33;;;17.27;;
6671;SDS011;3372;48.690;12.362;2022-09-12T06:19:36;25.07;;;17.83;;
6671;SDS011;3372;48.690;12.362;2022-09-12T06:22:01;22.33;;;16.53;;
6671;SDS011;3372;48.690;12.362;2022-09-12T06:24:27;21.60;;;16.10;;
6671;SDS011;3372;48.690;12.362;2022-09-12T06:26:53;24.73;;;14.70;;
6671;SDS011;3372;48.690;12.362;2022-09-12T06:29:18;18.73;;;14.93;;
6671;SDS011;3372;48.690;12.362;2022-09-12T06:31:44;20.07;;;14.70;;
6671;SDS011;3372;48.690;12.362;2022-09-12T06:34:11;24.87;;;15.10;;
6671;SDS011;3372;48.690;12.362;2022-09-12T06:36:42;19.50;;;14.03;;
6671;SDS011;3372;48.690;12.362;2022-09-12T06:39:09;17.77;;;13.50;;
6671;SDS011;3372;48.690;12.362;2022-09-12T06:41:46;17.27;;;13.83;;
6671;SDS011;3372;48.690;12.362;2022-09-12T06:44:14;20.10;;;13.97;;
6671;SDS011;3372;48.690;12.362;2022-09-12T06:46:44;19.37;;;15.70;;
6671;SDS011;3372;48.690;12.362;2022-09-12T06:49:11;28.00;;;25.00;;
6671;SDS011;3372;48.690;12.362;2022-09-12T06:51:37;23.23;;;19.10;;
6671;SDS011;3372;48.690;12.362;2022-09-12T06:54:03;24.53;;;19.30;;
6671;SDS011;3372;48.690;12.362;2022-09-12T06:56:29;21.47;;;18.20;;
6671;SDS011;3372;48.690;12.362;2022-09-12T06:58:55;23.73;;;16.33;;
6671;SDS011;3372;48.690;12.362;2022-09-12T07:01:23;24.13;;;17.00;;
6671;SDS011;3372;48.690;12.362;2022-09-12T07:03:54;21.80;;;16.13;;
6671;SDS011;3372;48.690;12.362;2022-09-12T07:06:21;22.67;;;17.07;;
6671;SDS011;3372;48.690;12.362;2022-09-12T07:08:53;23.90;;;17.80;;
6671;SDS011;3372;48.690;12.362;2022-09-12T07:11:21;18.63;;;14.83;;
6671;SDS011;3372;48.690;12.362;2022-09-12T07:13:50;19.67;;;14.67;;
6671;SDS011;3372;48.690;12.362;2022-09-12T07:16:18;17.93;;;14.50;;
6671;SDS011;3372;48.690;12.362;2022-09-12T07:18:48;17.77;;;14.10;;
6671;SDS011;3372;48.690;12.362;2022-09-12T07:21:15;21.80;;;17.03;;
6671;SDS011;3372;48.690;12.362;2022-09-12T07:23:41;24.27;;;18.03;;
6671;SDS011;3372;48.690;12.362;2022-09-12T07:26:10;19.83;;;15.33;;
6671;SDS011;3372;48.690;12.362;2022-09-12T07:28:37;21.93;;;16.80;;
6671;SDS011;3372;48.690;12.362;2022-09-12T07:31:04;21.57;;;16.80;;
6671;SDS011;3372;48.690;12.362;2022-09-12T07:33:32;21.80;;;15.40;;
6671;SDS011;3372;48.690;12.362;2022-09-12T07:36:01;21.90;;;16.13;;
6671;SDS011;3372;48.690;12.362;2022-09-12T07:38:28;23.27;;;20.67;;
6671;SDS011;3372;48.690;12.362;2022-09-12T07:40:53;26.17;;;22.20;;
6671;SDS011;3372;48.690;12.362;2022-09-12T07:43:19;20.00;;;17.60;;
6671;SDS011;3372;48.690;12.362;2022-09-12T07:45:45;22.40;;;17.07;;
6671;SDS011;3372;48.690;12.362;2022-09-12T07:48:10;22.93;;;17.53;;
6671;SDS011;3372;48.690;12.362;2022-09-12T07:50:37;21.20;;;15.50;;
6671;SDS011;3372;48.690;12.362;2022-09-12T07:53:03;22.60;;;17.03;;
6671;SDS011;3372;48.690;12.362;2022-09-12T07:55:29;22.70;;;17.20;;
6671;SDS011;3372;48.690;12.362;2022-09-12T07:57:55;22.03;;;15.40;;
6671;SDS011;3372;48.690;12.362;2022-09-12T08:00:21;20.00;;;16.03;;
6671;SDS011;3372;48.690;12.362;2022-09-12T08:02:50;19.13;;;15.20;;
6671;SDS011;3372;48.690;12.362;2022-09-12T08:05:17;22.10;;;16.57;;
6671;SDS011;3372;48.690;12.362;2022-09-12T08:07:43;21.43;;;16.63;;
6671;SDS011;3372;48.690;12.362;2022-09-12T08:10:09;20.10;;;15.80;;
6671;SDS011;3372;48.690;12.362;2022-09-12T08:12:37;21.13;;;15.53;;
6671;SDS011;3372;48.690;12.362;2022-09-12T08:15:06;19.13;;;14.13;;
6671;SDS011;3372;48.690;12.362;2022-09-12T08:17:32;18.23;;;13.63;;
6671;SDS011;3372;48.690;12.362;2022-09-12T08:19:58;16.40;;;14.17;;
6671;SDS011;3372;48.690;12.362;2022-09-12T08:22:23;17.00;;;13.30;;
6671;SDS011;3372;48.690;12.362;2022-09-12T08:24:49;11.40;;;10.20;;
6671;SDS011;3372;48.690;12.362;2022-09-12T08:27:15;19.57;;;15.77;;
6671;SDS011;3372;48.690;12.362;2022-09-12T08:29:41;17.30;;;15.20;;
6671;SDS011;3372;48.690;12.362;2022-09-12T08:32:06;18.80;;;13.40;;
6671;SDS011;3372;48.690;12.362;2022-09-12T08:34:32;14.57;;;12.20;;
6671;SDS011;3372;48.690;12.362;2022-09-12T08:36:58;13.77;;;11.70;;
6671;SDS011;3372;48.690;12.362;2022-09-12T08:39:23;14.83;;;12.17;;
6671;SDS011;3372;48.690;12.362;2022-09-12T08:42:00;17.63;;;14.00;;
6671;SDS011;3372;48.690;12.362;2022-09-12T08:47:27;15.50;;;12.77;;
6671;SDS011;3372;48.690;12.362;2022-09-12T08:52:53;11.13;;;9.60;;
6671;SDS011;3372;48.690;12.362;2022-09-12T08:55:36;17.10;;;12.13;;
6671;SDS011;3372;48.690;12.362;2022-09-12T08:58:17;15.67;;;13.00;;
6671;SDS011;3372;48.690;12.362;2022-09-12T09:06:27;15.10;;;11.60;;
6671;SDS011;3372;48.690;12.362;2022-09-12T09:14:35;16.03;;;12.80;;
6671;SDS011;3372;48.690;12.362;2022-09-12T09:17:18;12.70;;;10.67;;
6671;SDS011;3372;48.690;12.362;2022-09-12T09:22:42;12.43;;;10.70;;
6671;SDS011;3372;48.690;12.362;2022-09-12T09:25:15;11.17;;;9.30;;
6671;SDS011;3372;48.690;12.362;2022-09-12T09:27:51;14.77;;;9.83;;
6671;SDS011;3372;48.690;12.362;2022-09-12T09:30:24;12.03;;;10.00;;
6671;SDS011;3372;48.690;12.362;2022-09-12T09:32:53;10.60;;;9.27;;
6671;SDS011;3372;48.690;12.362;2022-09-12T09:35:28;12.17;;;9.80;;
6671;SDS011;3372;48.690;12.362;2022-09-12T09:38:00;13.10;;;10.07;;
6671;SDS011;3372;48.690;12.362;2022-09-12T09:40:33;12.17;;;9.80;;
6671;SDS011;3372;48.690;12.362;2022-09-12T09:43:16;11.13;;;10.00;;
6671;SDS011;3372;48.690;12.362;2022-09-12T09:45:47;12.53;;;8.73;;
6671;SDS011;3372;48.690;12.362;2022-09-12T09:50:44;11.07;;;9.70;;
6671;SDS011;3372;48.690;12.362;2022-09-12T09:53:14;9.73;;;8.73;;
6671;SDS011;3372;48.690;12.362;2022-09-12T09:56:54;11.07;;;8.43;;
6671;SDS011;3372;48.690;12.362;2022-09-12T10:04:21;8.67;;;7.27;;
6671;SDS011;3372;48.690;12.362;2022-09-12T10:06:53;9.90;;;7.10;;
6671;SDS011;3372;48.690;12.362;2022-09-12T10:09:22;11.13;;;7.13;;
6671;SDS011;3372;48.690;12.362;2022-09-12T10:11:50;6.97;;;6.30;;
6671;SDS011;3372;48.690;12.362;2022-09-12T10:14:59;8.70;;;7.47;;
6671;SDS011;3372;48.690;12.362;2022-09-12T10:17:25;8.73;;;7.43;;
6671;SDS011;3372;48.690;12.362;2022-09-12T10:20:22;9.53;;;7.90;;
6671;SDS011;3372;48.690;12.362;2022-09-12T10:23:20;11.03;;;9.10;;
6671;SDS011;3372;48.690;12.362;2022-09-12T10:25:54;9.43;;;8.07;;
6671;SDS011;3372;48.690;12.362;2022-09-12T10:28:39;13.50;;;7.80;;
6671;SDS011;3372;48.690;12.362;2022-09-12T10:31:05;9.80;;;8.57;;
6671;SDS011;3372;48.690;12.362;2022-09-12T10:33:36;11.50;;;8.87;;
6671;SDS011;3372;48.690;12.362;2022-09-12T10:36:07;11.67;;;10.23;;
6671;SDS011;3372;48.690;12.362;2022-09-12T10:38:33;12.13;;;10.37;;
6671;SDS011;3372;48.690;12.362;2022-09-12T10:41:02;12.57;;;9.97;;
6671;SDS011;3372;48.690;12.362;2022-09-12T10:45:58;11.83;;;8.80;;
6671;SDS011;3372;48.690;12.362;2022-09-12T10:53:48;10.70;;;9.03;;
6671;SDS011;3372;48.690;12.362;2022-09-12T10:56:17;10.10;;;8.33;;
6671;SDS011;3372;48.690;12.362;2022-09-12T11:01:47;10.33;;;8.47;;
6671;SDS011;3372;48.690;12.362;2022-09-12T11:39:59;7.30;;;6.40;;
6671;SDS011;3372;48.690;12.362;2022-09-12T11:42:39;9.13;;;6.40;;
6671;SDS011;3372;48.690;12.362;2022-09-12T11:47:39;8.10;;;7.30;;
6671;SDS011;3372;48.690;12.362;2022-09-12T11:50:15;9.50;;;7.90;;
6671;SDS011;3372;48.690;12.362;2022-09-12T11:52:59;7.70;;;6.90;;
6671;SDS011;3372;48.690;12.362;2022-09-12T11:55:32;6.37;;;5.77;;
6671;SDS011;3372;48.690;12.362;2022-09-12T11:58:08;7.07;;;6.37;;
6671;SDS011;3372;48.690;12.362;2022-09-12T12:00:35;7.03;;;5.97;;
6671;SDS011;3372;48.690;12.362;2022-09-12T12:08:18;6.17;;;5.27;;
6671;SDS011;3372;48.690;12.362;2022-09-12T12:10:50;6.97;;;5.30;;
6671;SDS011;3372;48.690;12.362;2022-09-12T12:13:21;6.30;;;5.70;;
6671;SDS011;3372;48.690;12.362;2022-09-12T12:15:59;6.27;;;5.67;;
6671;SDS011;3372;48.690;12.362;2022-09-12T12:18:31;5.93;;;5.20;;
6671;SDS011;3372;48.690;12.362;2022-09-12T12:21:19;5.63;;;5.03;;
6671;SDS011;3372;48.690;12.362;2022-09-12T12:34:44;6.53;;;5.80;;
6671;SDS011;3372;48.690;12.362;2022-09-12T12:47:38;6.47;;;5.07;;
6671;SDS011;3372;48.690;12.362;2022-09-12T12:50:13;6.10;;;5.50;;
6671;SDS011;3372;48.690;12.362;2022-09-12T12:52:57;6.53;;;5.70;;
6671;SDS011;3372;48.690;12.362;2022-09-12T12:55:29;6.90;;;5.83;;
6671;SDS011;3372;48.690;12.362;2022-09-12T12:58:00;6.10;;;5.50;;
6671;SDS011;3372;48.690;12.362;2022-09-12T13:00:29;7.37;;;5.30;;
6671;SDS011;3372;48.690;12.362;2022-09-12T13:05:24;5.80;;;5.20;;
6671;SDS011;3372;48.690;12.362;2022-09-12T13:08:34;6.40;;;5.60;;
6671;SDS011;3372;48.690;12.362;2022-09-12T13:10:46;6.30;;;5.70;;
6671;SDS011;3372;48.690;12.362;2022-09-12T13:16:01;5.57;;;5.07;;
6671;SDS011;3372;48.690;12.362;2022-09-12T13:18:41;6.70;;;6.00;;
6671;SDS011;3372;48.690;12.362;2022-09-12T13:23:43;7.20;;;5.97;;
6671;SDS011;3372;48.690;12.362;2022-09-12T13:26:23;6.17;;;5.50;;
6671;SDS011;3372;48.690;12.362;2022-09-12T13:28:50;5.50;;;5.00;;
6671;SDS011;3372;48.690;12.362;2022-09-12T13:31:53;6.33;;;5.67;;
6671;SDS011;3372;48.690;12.362;2022-09-12T13:37:02;6.30;;;5.50;;
6671;SDS011;3372;48.690;12.362;2022-09-12T13:42:41;6.13;;;5.33;;
6671;SDS011;3372;48.690;12.362;2022-09-12T13:47:46;8.20;;;5.63;;
6671;SDS011;3372;48.690;12.362;2022-09-12T13:50:17;6.47;;;5.87;;
6671;SDS011;3372;48.690;12.362;2022-09-12T13:52:47;6.57;;;5.33;;
6671;SDS011;3372;48.690;12.362;2022-09-12T13:58:25;5.97;;;5.37;;
6671;SDS011;3372;48.690;12.362;2022-09-12T14:01:04;6.40;;;5.80;;
6671;SDS011;3372;48.690;12.362;2022-09-12T14:03:42;7.60;;;5.80;;
6671;SDS011;3372;48.690;12.362;2022-09-12T14:06:41;6.87;;;5.60;;
6671;SDS011;3372;48.690;12.362;2022-09-12T14:09:11;5.90;;;5.30;;
6671;SDS011;3372;48.690;12.362;2022-09-12T14:11:38;5.60;;;4.80;;
6671;SDS011;3372;48.690;12.362;2022-09-12T14:14:16;6.30;;;5.03;;
6671;SDS011;3372;48.690;12.362;2022-09-12T14:16:51;5.20;;;4.67;;
6671;SDS011;3372;48.690;12.362;2022-09-12T14:19:17;6.13;;;5.53;;
6671;SDS011;3372;48.690;12.362;2022-09-12T14:21:44;6.20;;;5.60;;
6671;SDS011;3372;48.690;12.362;2022-09-12T14:24:10;7.47;;;5.10;;
6671;SDS011;3372;48.690;12.362;2022-09-12T14:26:37;5.60;;;5.00;;
6671;SDS011;3372;48.690;12.362;2022-09-12T14:29:06;5.60;;;5.10;;
6671;SDS011;3372;48.690;12.362;2022-09-12T14:31:36;7.00;;;5.33;;
6671;SDS011;3372;48.690;12.362;2022-09-12T14:36:49;5.93;;;5.10;;
6671;SDS011;3372;48.690;12.362;2022-09-12T14:44:38;6.57;;;5.57;;
6671;SDS011;3372;48.690;12.362;2022-09-12T14:47:12;5.20;;;4.70;;
6671;SDS011;3372;48.690;12.362;2022-09-12T14:49:43;6.90;;;6.07;;
6671;SDS011;3372;48.690;12.362;2022-09-12T14:52:21;6.40;;;5.80;;
6671;SDS011;3372;48.690;12.362;2022-09-12T14:54:57;6.67;;;5.47;;
6671;SDS011;3372;48.690;12.362;2022-09-12T14:57:35;5.10;;;4.57;;
6671;SDS011;3372;48.690;12.362;2022-09-12T15:02:41;5.83;;;5.23;;
6671;SDS011;3372;48.690;12.362;2022-09-12T15:07:38;5.67;;;4.93;;
6671;SDS011;3372;48.690;12.362;2022-09-12T15:10:22;6.17;;;5.10;;
6671;SDS011;3372;48.690;12.362;2022-09-12T15:15:30;6.93;;;5.10;;
6671;SDS011;3372;48.690;12.362;2022-09-12T15:17:56;7.17;;;5.37;;
6671;SDS011;3372;48.690;12.362;2022-09-12T15:20:22;4.87;;;4.30;;
6671;SDS011;3372;48.690;12.362;2022-09-12T15:22:48;5.33;;;4.83;;
6671;SDS011;3372;48.690;12.362;2022-09-12T15:25:14;6.87;;;5.33;;
6671;SDS011;3372;48.690;12.362;2022-09-12T15:27:40;5.57;;;5.00;;
6671;SDS011;3372;48.690;12.362;2022-09-12T15:30:07;5.23;;;4.73;;
6671;SDS011;3372;48.690;12.362;2022-09-12T15:32:34;5.57;;;4.97;;
6671;SDS011;3372;48.690;12.362;2022-09-12T15:35:00;8.07;;;5.50;;
6671;SDS011;3372;48.690;12.362;2022-09-12T15:37:26;5.77;;;4.97;;
6671;SDS011;3372;48.690;12.362;2022-09-12T15:39:52;5.90;;;4.90;;
6671;SDS011;3372;48.690;12.362;2022-09-12T15:42:18;8.80;;;5.10;;
6671;SDS011;3372;48.690;12.362;2022-09-12T15:44:51;5.37;;;4.73;;
6671;SDS011;3372;48.690;12.362;2022-09-12T15:47:17;5.60;;;5.00;;
6671;SDS011;3372;48.690;12.362;2022-09-12T15:49:43;5.07;;;4.57;;
6671;SDS011;3372;48.690;12.362;2022-09-12T15:52:10;4.73;;;4.33;;
6671;SDS011;3372;48.690;12.362;2022-09-12T15:54:39;5.90;;;5.10;;
6671;SDS011;3372;48.690;12.362;2022-09-12T15:57:05;5.10;;;4.53;;
6671;SDS011;3372;48.690;12.362;2022-09-12T15:59:31;5.20;;;4.60;;
6671;SDS011;3372;48.690;12.362;2022-09-12T16:01:56;4.90;;;4.50;;
6671;SDS011;3372;48.690;12.362;2022-09-12T16:04:23;5.30;;;4.37;;
6671;SDS011;3372;48.690;12.362;2022-09-12T16:06:51;7.93;;;4.53;;
6671;SDS011;3372;48.690;12.362;2022-09-12T16:09:18;6.07;;;4.70;;
6671;SDS011;3372;48.690;12.362;2022-09-12T16:11:43;4.70;;;4.30;;
6671;SDS011;3372;48.690;12.362;2022-09-12T16:14:12;5.30;;;4.80;;
6671;SDS011;3372;48.690;12.362;2022-09-12T16:16:38;5.60;;;4.77;;
6671;SDS011;3372;48.690;12.362;2022-09-12T16:19:04;4.57;;;4.10;;
6671;SDS011;3372;48.690;12.362;2022-09-12T16:21:30;4.93;;;4.43;;
6671;SDS011;3372;48.690;12.362;2022-09-12T16:23:56;5.67;;;5.07;;
6671;SDS011;3372;48.690;12.362;2022-09-12T16:26:22;5.27;;;4.70;;
6671;SDS011;3372;48.690;12.362;2022-09-12T16:28:53;5.43;;;4.80;;
6671;SDS011;3372;48.690;12.362;2022-09-12T16:31:22;5.23;;;4.73;;
6671;SDS011;3372;48.690;12.362;2022-09-12T16:33:48;6.90;;;5.80;;
6671;SDS011;3372;48.690;12.362;2022-09-12T16:36:15;6.63;;;5.93;;
6671;SDS011;3372;48.690;12.362;2022-09-12T16:38:42;8.00;;;7.20;;
6671;SDS011;3372;48.690;12.362;2022-09-12T16:41:10;16.37;;;14.67;;
6671;SDS011;3372;48.690;12.362;2022-09-12T16:43:36;11.30;;;8.70;;
6671;SDS011;3372;48.690;12.362;2022-09-12T16:46:09;9.43;;;8.43;;
6671;SDS011;3372;48.690;12.362;2022-09-12T16:48:54;15.20;;;13.70;;
6671;SDS011;3372;48.690;12.362;2022-09-12T16:51:23;8.00;;;7.30;;
6671;SDS011;3372;48.690;12.362;2022-09-12T16:53:51;8.00;;;6.93;;
6671;SDS011;3372;48.690;12.362;2022-09-12T16:56:18;6.70;;;6.00;;
6671;SDS011;3372;48.690;12.362;2022-09-12T16:58:44;6.53;;;5.93;;
6671;SDS011;3372;48.690;12.362;2022-09-12T17:01:21;5.73;;;5.20;;
6671;SDS011;3372;48.690;12.362;2022-09-12T17:03:51;6.80;;;5.60;;
6671;SDS011;3372;48.690;12.362;2022-09-12T17:06:18;7.30;;;5.87;;
6671;SDS011;3372;48.690;12.362;2022-09-12T17:08:45;5.77;;;5.27;;
6671;SDS011;3372;48.690;12.362;2022-09-12T17:11:16;5.10;;;4.63;;
6671;SDS011;3372;48.690;12.362;2022-09-12T17:13:48;6.03;;;5.17;;
6671;SDS011;3372;48.690;12.362;2022-09-12T17:16:18;5.50;;;4.67;;
6671;SDS011;3372;48.690;12.362;2022-09-12T17:18:44;5.87;;;5.27;;
6671;SDS011;3372;48.690;12.362;2022-09-12T17:21:10;7.20;;;5.90;;
6671;SDS011;3372;48.690;12.362;2022-09-12T17:23:36;6.70;;;5.60;;
6671;SDS011;3372;48.690;12.362;2022-09-12T17:26:03;6.83;;;5.53;;
6671;SDS011;3372;48.690;12.362;2022-09-12T17:28:30;5.50;;;4.87;;
6671;SDS011;3372;48.690;12.362;2022-09-12T17:30:56;7.40;;;5.60;;
6671;SDS011;3372;48.690;12.362;2022-09-12T17:33:24;5.23;;;4.70;;
6671;SDS011;3372;48.690;12.362;2022-09-12T17:35:50;5.67;;;5.00;;
6671;SDS011;3372;48.690;12.362;2022-09-12T17:38:15;5.73;;;5.07;;
6671;SDS011;3372;48.690;12.362;2022-09-12T17:40:41;6.03;;;5.33;;
6671;SDS011;3372;48.690;12.362;2022-09-12T17:43:09;5.57;;;5.00;;
6671;SDS011;3372;48.690;12.362;2022-09-12T17:45:38;5.67;;;5.17;;
6671;SDS011;3372;48.690;12.362;2022-09-12T17:48:04;10.80;;;5.67;;
6671;SDS011;3372;48.690;12.362;2022-09-12T17:50:34;7.77;;;6.30;;
6671;SDS011;3372;48.690;12.362;2022-09-12T17:53:04;8.10;;;7.27;;
6671;SDS011;3372;48.690;12.362;2022-09-12T17:55:33;8.67;;;6.83;;
6671;SDS011;3372;48.690;12.362;2022-09-12T17:58:00;7.83;;;6.30;;